默认 日期 大小 文件数 浏览量 最新下载 xml
vuelta磁力链接相关资源由用户搜索指令自动获取,结果来源于网络,本站不存储任何资料,亦不承担任何责任,请于24小时内删除,搜索到897个磁力,用时1ms。
    ... .Torrenting.com.txt": 102, "La.Vuelta.2019.Stage.2.HDTV.x264 ... -WiNNiNG.mkv": 2014790244, "La.Vuelta.2019.Stage.2.HDTV.x264 ...
创建时间: 2019-08-28 03:03:14 大小:1.88 GB 文件数量:9 热度:4 最近下载:2022-11-12 08:40:43
    {"2019.Vuelta.a.España.Stage.4.NBCSG.1080p.WEB-DL.H264-FINFUNGUS.mkv": 7707731718, "2019.Vuelta.a.España.Stage.4.NBCSG.1080p.WEB-DL.H264-FINFUNGUS.nfo": 142, "2019.Vuelta.a.España.Stage.4.NBCSG.1080p.WEB-DL.H264-FINFUNGUS.sfv": 267}
创建时间: 2019-08-28 05:36:51 大小:7.18 GB 文件数量:3 热度:4 最近下载:2022-11-15 20:46:13
    {"LaVuelta 2019 03 Ibi - Alicante 720p part 1.mkv": 2260902808, "LaVuelta 2019 03 Ibi - Alicante 720p part 2.mkv": 1679590054, "LaVuelta 2019 02 Benidorm - Calpe 720p part 1.mkv": 3890206638, "LaVuelta 2019 04 Cullera - El Puig 720p part 1.mkv": 2233856202 ...
创建时间: 2019-08-28 17:14:46 大小:14.42 GB 文件数量:7 热度:6 最近下载:2024-12-16 15:59:02
    {"2019.Vuelta.a.España.Stage.5.NBCSG.1080p.WEB-DL.H264-FINFUNGUS.mkv": 8565670036, "2019.Vuelta.a.España.Stage.5.NBCSG.1080p.WEB-DL.H264-FINFUNGUS.nfo": 142, "2019.Vuelta.a.España.Stage.5.NBCSG.1080p.WEB-DL.H264-FINFUNGUS.sfv": 267}
创建时间: 2019-08-30 00:32:16 大小:7.98 GB 文件数量:3 热度:4 最近下载:2022-11-12 09:54:46
    {"2019.Vuelta.a.España.Stage.3.NBCSG.1080p.WEB-DL.H264-FINFUNGUS.mkv": 7043745389, "2019.Vuelta.a.España.Stage.3.NBCSG.1080p.WEB-DL.H264-FINFUNGUS.nfo": 142, "2019.Vuelta.a.España.Stage.3.NBCSG.1080p.WEB-DL.H264-FINFUNGUS.sfv": 267}
创建时间: 2019-08-30 04:42:09 大小:6.56 GB 文件数量:3 热度:4 最近下载:2022-11-12 10:42:42
    ... Benidorm - Calpe 1080i.mkv": 11991958477, "Vuelta a Espana 2019 04 Cullera ... part 1.mkv": 5922011297, "Vuelta a Espana 2019 04 Cullera ... part 2.mkv": 5132081911, "Vuelta a Espana 2019 06 Mora ... del Maestart 1080i.mkv": 8758806334, "Vuelta a Espana 2019 01 Salinas ...
创建时间: 2019-08-30 13:30:19 大小:46.47 GB 文件数量:7 热度:7 最近下载:2024-11-30 14:29:02
    ... Benidorm - Calpe 1080i.mkv": 11991958477, "Vuelta a Espana 2019 04 Cullera ... 1080i part 1.mkv": 5922011297, "Vuelta a Espana 2019 04 Cullera ... 1080i part 2.mkv": 4517395154, "Vuelta a Espana 2019 01 Salinas ...
创建时间: 2019-08-30 17:20:36 大小:27.8 GB 文件数量:4 热度:6 最近下载:2024-12-01 20:16:03
    {"2019.Vuelta.a.España.Stage.6.NBCSG.1080p.WEB-DL.H264-FINFUNGUS.mkv": 5973354323, "2019.Vuelta.a.España.Stage.6.NBCSG.1080p.WEB-DL.H264-FINFUNGUS.nfo": 142, "2019.Vuelta.a.España.Stage.6.NBCSG.1080p.WEB-DL.H264-FINFUNGUS.sfv": 532}
创建时间: 2019-08-30 18:38:13 大小:5.56 GB 文件数量:3 热度:5 最近下载:2024-11-29 09:34:03
    {"LaVuelta 2019 03 Ibi - Alicante 720p part 1.mkv": 2260902808, "LaVuelta 2019 03 Ibi - Alicante 720p part 2.mkv": 1679590054, "LaVuelta 2019 02 Benidorm - Calpe 720p part 1.mkv": 3890206638, "LaVuelta 2019 04 Cullera - El Puig 720p part 1.mkv": 2233856202 ...
创建时间: 2019-08-30 19:05:04 大小:21.42 GB 文件数量:10 热度:6 最近下载:2024-12-19 01:39:02
    ... Benidorm - Calpe 1080i.mkv": 11991958477, "Vuelta a Espana 2019 04 Cullera ... part 1.mkv": 5922011297, "Vuelta a Espana 2019 04 Cullera ... 2 broken.mkv": 3984438951, "Vuelta a Espana 2019 06 Mora ... Maestart 1080i.mkv": 8758806334, "Vuelta a Espana 2019 01 Salinas ...
创建时间: 2019-08-31 20:08:58 大小:56.19 GB 文件数量:9 热度:7 最近下载:2025-02-12 06:31:02
    ... - Calpe 1080i.mkv": 11991958477, "Vuelta a Espana 2019 08 Valls ... - Igualada 1080i.mkv": 9434286310, "Vuelta a Espana 2019 04 Cullera ... 1080i.mkv": 11377754009, "Vuelta a Espana 2019 07 Onda ... Maestart 1080i.mkv": 8758806334, "Vuelta a Espana 2019 01 Salinas ...
创建时间: 2019-09-01 03:47:17 大小:65.2 GB 文件数量:8 热度:9 最近下载:2025-01-27 09:57:07
    ... Benidorm - Calpe 1080i.mkv": 11991958477, "Vuelta a Espana 2019 04 Cullera ... 1080i part 1.mkv": 5922011297, "Vuelta a Espana 2019 04 Cullera ... part 2.mkv": 4517395154, "Vuelta a Espana 2019 05 L ... 1080i part 2.mkv": 5132081911, "Vuelta a Espana 2019 01 Salinas ...
创建时间: 2019-09-01 20:23:14 大小:38.31 GB 文件数量:6 热度:7 最近下载:2024-12-05 02:30:02
    {"LaVuelta 2019 03 Ibi - Alicante 720p part 1.mkv": 2260902808, "LaVuelta 2019 03 Ibi - Alicante 720p part 2.mkv": 1679590054, "LaVuelta 2019 02 Benidorm - Calpe 720p part 1.mkv": 3890206638, "LaVuelta 2019 04 Cullera - El Puig 720p part 1.mkv": 2233856202 ...
创建时间: 2019-09-01 22:55:20 大小:25.01 GB 文件数量:12 热度:7 最近下载:2025-02-24 17:24:02
    ... Calpe 1080i.mkv": 11991958477, "Vuelta a Espana 2019 08 Valls ... Igualada 1080i.mkv": 9434286310, "Vuelta a Espana 2019 04 Cullera ... 1080i.mkv": 8758806334, "Vuelta a Espana 2019 01 Salinas ... (TTT) 1080i.mkv": 7419499311, "Vuelta a Espana 2019 09 Andorra ...
创建时间: 2019-09-02 03:03:18 大小:78.32 GB 文件数量:10 热度:8 最近下载:2024-12-23 15:06:01
    ... .Torrenting.com.txt": 102, "La.Vuelta.2019.Stage.2.Highlights.HDTV ... .x264-WiNNiNG.mkv": 323326163, "La.Vuelta.2019.Stage.2.Highlights.HDTV ...
创建时间: 2019-09-02 05:54:57 大小:308.77 MB 文件数量:9 热度:5 最近下载:2024-11-04 09:49:02
    {"2019.Vuelta.a.España.Stage.1.NBCSG.1080p.WEB-DL.H264-FINFUNGUS.mkv": 5461858606, "2019.Vuelta.a.España.Stage.1.NBCSG.1080p.WEB-DL.H264-FINFUNGUS.nfo": 142, "2019.Vuelta.a.España.Stage.1.NBCSG.1080p.WEB-DL.H264-FINFUNGUS.sfv": 267}
创建时间: 2019-09-02 09:14:04 大小:5.09 GB 文件数量:3 热度:5 最近下载:2024-11-22 15:46:02
    {"2019.Vuelta.a.España.Stage.7.NBCSG.1080p.WEB-DL.H264-FINFUNGUS.mkv": 6995766443, "2019.Vuelta.a.España.Stage.7.NBCSG.1080p.WEB-DL.H264-FINFUNGUS.nfo": 142, "2019.Vuelta.a.España.Stage.7.NBCSG.1080p.WEB-DL.H264-FINFUNGUS.sfv": 532}
创建时间: 2019-09-02 12:34:10 大小:6.52 GB 文件数量:3 热度:5 最近下载:2022-11-12 10:12:23
    ... .Torrenting.com.txt": 102, "La.Vuelta.2019.Stage.20.HDTV.x264 ... -WiNNiNG.mkv": 2419507049, "La.Vuelta.2019.Stage.20.HDTV.x264 ...
创建时间: 2019-09-23 12:42:35 大小:2.25 GB 文件数量:9 热度:5 最近下载:2024-10-26 19:58:01
    {"2019.Vuelta.a.España.Stage.9.NBCSG.1080p.WEB-DL.H264-FINFUNGUS.mkv": 9725525735, "2019.Vuelta.a.España.Stage.9.NBCSG.1080p.WEB-DL.H264-FINFUNGUS.nfo": 144, "2019.Vuelta.a.España.Stage.9.NBCSG.1080p.WEB-DL.H264-FINFUNGUS.sfv": 532}
创建时间: 2019-09-23 22:42:37 大小:9.06 GB 文件数量:3 热度:5 最近下载:2025-03-10 10:48:03
    {"PCTNEW ORG.url": 113, "DESCARGAS2020.url": 124, "Willy Fog - Temporada 1 [HDTV][Cap.101][Castellano][www.descargas2020.ORG][www.pctnew.ORG].avi": 351642302, "Willy Fog - Temporada 1 [HDTV][Cap.102][Castellano][www.descargas2020.ORG][www.pctnew.ORG].avi": ...
创建时间: 2019-09-23 22:52:45 大小:8.52 GB 文件数量:28 热度:7 最近下载:2025-04-30 03:21:01